Time;durP1;ratioP1;P1;durP2;ratioP2;P2;SDS_P1;SDS_P2;PMS_P1;PMS_P2;Temp;Humidity;BMP_temperature;BMP_pressure;BME280_temperature;BME280_humidity;BME280_pressure;Samples;Min_cycle;Max_cycle;Signal;HPM_P1;HPM_P2
2023/01/07 00:01:37;;;;;;;4.50;2.55;;;;;;;9.79;100.00;100676.59;5027784;28;20040;-66
2023/01/07 00:04:05;;;;;;;6.28;2.45;;;;;;;9.80;100.00;100679.13;5051485;28;20112;-66
2023/01/07 00:06:33;;;;;;;3.70;2.40;;;;;;;9.42;100.00;100615.19;5033819;28;20044;-66
2023/01/07 00:08:59;;;;;;;5.82;2.60;;;;;;;9.77;100.00;100665.31;5051493;28;20053;-66
2023/01/07 00:11:27;;;;;;;3.97;2.33;;;;;;;9.75;100.00;100670.59;5038158;28;20031;-66
2023/01/07 00:13:54;;;;;;;5.35;2.70;;;;;;;9.74;100.00;100658.41;5032685;28;20442;-66
2023/01/07 00:16:21;;;;;;;3.70;2.20;;;;;;;9.79;100.00;100666.94;5031953;28;20033;-66
2023/01/07 00:18:47;;;;;;;4.68;2.47;;;;;;;9.77;100.00;100663.50;5049836;28;20063;-67
2023/01/07 00:21:15;;;;;;;4.32;2.55;;;;;;;9.80;100.00;100659.94;5049551;28;20057;-66
2023/01/07 00:23:41;;;;;;;5.05;2.33;;;;;;;9.80;100.00;100652.88;5049349;28;20037;-66
2023/01/07 00:26:09;;;;;;;3.83;2.25;;;;;;;9.77;100.00;100645.16;5050422;28;20748;-66
2023/01/07 00:28:37;;;;;;;6.07;2.50;;;;;;;9.82;100.00;100648.44;5051459;28;20025;-66
2023/01/07 00:31:05;;;;;;;3.30;2.03;;;;;;;9.52;100.00;100605.16;5052131;28;20115;-66
2023/01/07 00:33:33;;;;;;;5.43;3.05;;;;;;;9.91;100.00;100649.81;5034256;28;20036;-66
2023/01/07 00:36:04;;;;;;;6.32;2.42;;;;;;;9.94;100.00;100654.91;5050774;28;20060;-66
2023/01/07 00:38:30;;;;;;;5.15;2.78;;;;;;;9.53;100.00;100583.25;5033567;28;20471;-66
2023/01/07 00:40:56;;;;;;;7.55;2.90;;;;;;;9.89;100.00;100642.00;5049738;28;20104;-66
2023/01/07 00:43:22;;;;;;;5.25;2.53;;;;;;;9.93;100.00;100643.59;5046839;28;20033;-66
2023/01/07 00:45:47;;;;;;;3.47;2.30;;;;;;;9.90;100.00;100629.75;5032037;28;20025;-66
2023/01/07 00:48:12;;;;;;;5.57;2.50;;;;;;;9.93;100.00;100643.59;5050565;28;20116;-66
2023/01/07 00:50:38;;;;;;;4.63;2.55;;;;;;;9.73;100.00;100604.22;5049991;28;20376;-66
2023/01/07 00:53:04;;;;;;;4.85;2.78;;;;;;;9.89;100.00;100636.75;5050816;28;20041;-66
2023/01/07 00:55:30;;;;;;;5.72;2.75;;;;;;;9.87;100.00;100627.25;5033103;28;20033;-66
2023/01/07 00:57:56;;;;;;;5.40;2.45;;;;;;;9.87;100.00;100622.84;5050589;28;20037;-66
2023/01/07 01:00:23;;;;;;;5.82;3.00;;;;;;;9.80;100.00;100610.91;5052447;28;20032;-66
2023/01/07 01:02:49;;;;;;;4.93;2.88;;;;;;;9.88;100.00;100629.78;5051245;28;20025;-66
2023/01/07 01:05:15;;;;;;;4.82;2.60;;;;;;;9.86;100.00;100621.16;5051799;28;20120;-67
2023/01/07 01:07:41;;;;;;;5.50;2.90;;;;;;;9.80;100.00;100610.06;5033671;28;20519;-66
2023/01/07 01:10:09;;;;;;;4.65;2.60;;;;;;;9.88;100.00;100621.06;5045363;28;20752;-67
2023/01/07 01:12:35;;;;;;;4.55;2.58;;;;;;;9.83;100.00;100617.81;5033482;28;20467;-66
2023/01/07 01:15:08;;;;;;;5.63;3.05;;;;;;;9.80;100.00;100612.69;5049770;28;20039;-66
2023/01/07 01:17:33;;;;;;;4.28;2.35;;;;;;;9.82;100.00;100609.06;5049501;28;20036;-66
2023/01/07 01:19:59;;;;;;;8.13;3.03;;;;;;;9.76;100.00;100604.09;5046197;28;20040;-66
2023/01/07 01:22:25;;;;;;;4.25;2.72;;;;;;;9.78;100.00;100589.13;5045694;28;20029;-67
2023/01/07 01:24:50;;;;;;;9.30;3.15;;;;;;;9.83;100.00;100589.78;5048456;28;20468;-66
2023/01/07 01:27:17;;;;;;;5.40;2.78;;;;;;;9.80;100.00;100587.28;5030992;28;20728;-66
2023/01/07 01:29:42;;;;;;;5.13;2.50;;;;;;;9.85;100.00;100598.44;5033939;28;20660;-65
2023/01/07 01:32:08;;;;;;;11.65;2.47;;;;;;;9.85;100.00;100584.47;5051397;28;20028;-66
2023/01/07 01:34:33;;;;;;;6.40;2.65;;;;;;;9.88;100.00;100600.94;5034160;28;20029;-66
2023/01/07 01:36:58;;;;;;;4.00;2.45;;;;;;;9.84;100.00;100585.38;5050554;28;20025;-66
2023/01/07 01:39:24;;;;;;;5.68;2.67;;;;;;;9.78;100.00;100586.50;5030913;28;20039;-66
2023/01/07 01:41:49;;;;;;;3.72;1.98;;;;;;;9.74;100.00;100588.41;5015262;28;20036;-66
2023/01/07 01:44:48;;;;;;;4.97;2.55;;;;;;;9.77;100.00;100591.84;5049622;28;20028;-66
2023/01/07 01:47:26;;;;;;;4.47;2.22;;;;;;;9.79;100.00;100593.47;4995178;28;20140;-66
2023/01/07 01:49:59;;;;;;;3.85;2.15;;;;;;;9.72;100.00;100581.53;5049395;28;20041;-66
2023/01/07 01:52:32;;;;;;;3.67;2.58;;;;;;;9.80;100.00;100594.31;5031934;28;20533;-66
2023/01/07 01:55:00;;;;;;;4.10;2.57;;;;;;;9.83;100.00;100595.03;5050291;28;20052;-66
2023/01/07 01:57:27;;;;;;;13.80;2.65;;;;;;;9.74;100.00;100587.56;5039194;28;20282;-66
2023/01/07 01:59:53;;;;;;;8.18;3.10;;;;;;;9.77;100.00;100599.72;5029786;28;20558;-66
2023/01/07 02:02:26;;;;;;;4.03;2.28;;;;;;;9.70;100.00;100585.97;5032609;28;20120;-66
2023/01/07 02:04:54;;;;;;;6.00;2.80;;;;;;;9.69;100.00;100577.28;5030731;28;20225;-66
2023/01/07 02:07:19;;;;;;;7.13;2.47;;;;;;;9.69;100.00;100571.16;5030196;28;20029;-66
2023/01/07 02:09:46;;;;;;;4.72;1.75;;;;;;;9.74;100.00;100579.69;5030428;28;20025;-66
2023/01/07 02:12:21;;;;;;;4.75;2.40;;;;;;;9.69;100.00;100566.78;5029940;28;20028;-66
2023/01/07 02:15:15;;;;;;;3.47;1.73;;;;;;;9.73;100.00;100583.25;5028842;28;20063;-66
2023/01/07 02:18:12;;;;;;;7.78;2.53;;;;;;;9.41;100.00;100523.44;5044756;28;20028;-66
2023/01/07 02:20:41;;;;;;;6.93;2.25;;;;;;;9.74;100.00;100574.44;5028209;28;20079;-64
2023/01/07 02:23:32;;;;;;;5.35;2.08;;;;;;;9.70;100.00;100567.59;5046617;28;20044;-66
2023/01/07 02:26:18;;;;;;;3.67;2.10;;;;;;;9.65;100.00;100559.97;5023722;28;20566;-66
2023/01/07 02:29:07;;;;;;;7.10;2.33;;;;;;;9.64;100.00;100560.00;5041728;28;20391;-66
2023/01/07 02:31:58;;;;;;;5.10;2.30;;;;;;;9.67;100.00;100559.88;5006770;28;20092;-66
2023/01/07 02:34:38;;;;;;;5.80;2.72;;;;;;;9.66;100.00;100564.28;5045699;28;20056;-67
2023/01/07 02:37:34;;;;;;;5.28;2.40;;;;;;;9.63;100.00;100560.94;5047589;28;20029;-66
2023/01/07 02:40:18;;;;;;;3.17;1.98;;;;;;;9.53;100.00;100543.91;5009650;28;20052;-66
2023/01/07 02:43:11;;;;;;;4.50;2.50;;;;;;;9.58;100.00;100561.13;5044422;28;20183;-66
2023/01/07 02:46:06;;;;;;;4.95;2.40;;;;;;;9.62;100.00;100552.22;5021139;28;20093;-66
2023/01/07 02:48:32;;;;;;;5.00;2.58;;;;;;;9.61;100.00;100544.41;5020535;28;20563;-66
2023/01/07 02:50:57;;;;;;;5.88;3.22;;;;;;;9.57;100.00;100537.59;5021739;28;20025;-66
2023/01/07 02:53:23;;;;;;;3.63;2.17;;;;;;;9.62;100.00;100538.25;5039353;28;20079;-66
2023/01/07 02:56:14;;;;;;;4.78;2.20;;;;;;;9.67;100.00;100544.13;5064644;28;20029;-65
2023/01/07 02:59:18;;;;;;;3.40;2.10;;;;;;;9.68;100.00;100532.72;5031247;28;20025;-66
2023/01/07 03:02:08;;;;;;;6.75;2.28;;;;;;;9.66;100.00;100524.94;4965605;28;20042;-66
2023/01/07 03:04:56;;;;;;;5.15;2.25;;;;;;;9.67;100.00;100526.63;4946720;28;20113;-66
2023/01/07 03:07:39;;;;;;;4.55;2.22;;;;;;;9.66;100.00;100524.09;5009047;28;20056;-66
2023/01/07 03:10:10;;;;;;;8.82;2.35;;;;;;;9.65;100.00;100522.38;5054717;28;20120;-66
2023/01/07 03:12:39;;;;;;;4.18;2.10;;;;;;;9.64;100.00;100532.00;5024743;28;20169;-66
2023/01/07 03:15:16;;;;;;;6.43;2.55;;;;;;;9.56;100.00;100518.41;5026703;28;20079;-66
2023/01/07 03:17:47;;;;;;;4.25;2.15;;;;;;;9.50;100.00;100521.25;5028382;28;20113;-66
2023/01/07 03:20:13;;;;;;;5.85;2.20;;;;;;;9.53;100.00;100529.00;5043742;28;20040;-66
2023/01/07 03:22:40;;;;;;;5.78;2.20;;;;;;;9.51;100.00;100532.63;5046483;28;20025;-66
2023/01/07 03:25:06;;;;;;;4.70;3.08;;;;;;;9.46;100.00;100516.25;5026751;28;20147;-65
2023/01/07 03:27:33;;;;;;;3.75;2.42;;;;;;;9.12;100.00;100467.03;5029134;28;20029;-66
2023/01/07 03:30:01;;;;;;;6.70;2.75;;;;;;;9.46;100.00;100521.50;5047864;28;20033;-66
2023/01/07 03:33:19;;;;;;;5.65;2.35;;;;;;;9.37;100.00;100522.72;5029916;28;20028;-66
2023/01/07 03:35:46;;;;;;;3.42;1.92;;;;;;;9.40;100.00;100521.72;5004713;28;20056;-66
2023/01/07 03:38:13;;;;;;;5.05;2.92;;;;;;;9.33;100.00;100523.75;5048852;28;20033;-66
2023/01/07 03:40:38;;;;;;;8.25;2.30;;;;;;;9.30;100.00;100518.66;5032252;28;20036;-65
2023/01/07 03:43:04;;;;;;;4.28;2.33;;;;;;;9.23;100.00;100515.44;5050894;28;20033;-65
2023/01/07 03:45:29;;;;;;;4.35;2.17;;;;;;;9.26;100.00;100503.16;5050404;28;20398;-65
2023/01/07 03:47:55;;;;;;;4.60;2.38;;;;;;;9.24;100.00;100503.19;5050548;28;20454;-66
2023/01/07 03:50:22;;;;;;;5.65;2.55;;;;;;;9.33;100.00;100505.41;5031636;28;20033;-66
2023/01/07 03:52:47;;;;;;;7.65;2.70;;;;;;;9.38;100.00;100507.84;5048701;28;20064;-66
2023/01/07 03:55:13;;;;;;;9.27;2.60;;;;;;;9.38;100.00;100498.22;5050939;28;20079;-66
2023/01/07 03:57:39;;;;;;;4.20;2.30;;;;;;;9.37;100.00;100498.25;5047416;28;20071;-66
2023/01/07 04:00:06;;;;;;;11.63;2.03;;;;;;;9.38;100.00;100498.22;5034644;28;20102;-66
2023/01/07 04:02:31;;;;;;;4.00;1.92;;;;;;;9.22;100.00;100471.81;5050438;28;20052;-66
2023/01/07 04:04:56;;;;;;;5.43;2.15;;;;;;;9.43;100.00;100490.16;5050667;28;20029;-66
2023/01/07 04:07:22;;;;;;;3.53;2.20;;;;;;;9.44;100.00;100491.84;5033335;28;20037;-66
2023/01/07 04:09:49;;;;;;;5.35;2.15;;;;;;;9.35;100.00;100471.28;5050948;28;20033;-66
2023/01/07 04:12:14;;;;;;;4.95;2.55;;;;;;;9.48;100.00;100493.41;5050517;28;20025;-66
2023/01/07 04:14:40;;;;;;;4.03;1.92;;;;;;;9.49;100.00;100482.00;5049364;28;20269;-65
2023/01/07 04:17:05;;;;;;;5.53;2.55;;;;;;;9.56;100.00;100489.53;5051486;28;20174;-66
2023/01/07 04:19:31;;;;;;;4.30;2.20;;;;;;;9.47;100.00;100466.31;5049623;28;20039;-66
2023/01/07 04:21:56;;;;;;;3.42;2.05;;;;;;;9.55;100.00;100476.47;5032272;28;20036;-66
2023/01/07 04:24:21;;;;;;;7.55;2.53;;;;;;;9.47;100.00;100461.06;5021853;28;20055;-66
2023/01/07 04:26:47;;;;;;;6.25;2.28;;;;;;;9.41;100.00;100450.00;5051011;28;20029;-66
2023/01/07 04:29:12;;;;;;;4.90;2.10;;;;;;;9.52;100.00;100466.13;5042918;28;20156;-65
2023/01/07 04:31:38;;;;;;;4.28;1.88;;;;;;;9.49;100.00;100453.16;5033158;28;20032;-65
2023/01/07 04:34:03;;;;;;;3.55;1.90;;;;;;;9.53;100.00;100455.56;5050679;28;20032;-65
2023/01/07 04:36:29;;;;;;;3.35;1.38;;;;;;;9.55;100.00;100456.34;5032725;28;20032;-66
2023/01/07 04:38:54;;;;;;;3.17;1.58;;;;;;;9.48;100.00;100441.81;5051519;28;20033;-66
2023/01/07 04:41:20;;;;;;;4.63;1.80;;;;;;;9.55;100.00;100455.50;5033432;28;20126;-66
2023/01/07 04:43:45;;;;;;;3.83;1.90;;;;;;;9.51;100.00;100435.56;5031939;28;20475;-66
2023/01/07 04:46:10;;;;;;;4.13;1.60;;;;;;;9.54;100.00;100438.03;5050858;28;20025;-66
2023/01/07 04:48:36;;;;;;;3.08;1.42;;;;;;;9.54;100.00;100435.44;5032571;28;20132;-66
2023/01/07 04:51:01;;;;;;;4.45;1.52;;;;;;;9.51;100.00;100435.56;5036553;28;20029;-66
2023/01/07 04:53:27;;;;;;;5.40;1.50;;;;;;;9.49;100.00;100421.69;5048454;28;20087;-65
2023/01/07 04:55:53;;;;;;;2.33;1.23;;;;;;;9.21;100.00;100380.97;5049192;28;20032;-66
2023/01/07 04:58:18;;;;;;;3.95;1.77;;;;;;;9.50;100.00;100426.00;5065511;28;20033;-65
2023/01/07 05:00:44;;;;;;;2.83;1.25;;;;;;;9.54;100.00;100424.94;5031641;28;20165;-65
2023/01/07 05:03:10;;;;;;;3.17;1.05;;;;;;;9.42;100.00;100400.13;5049550;28;20025;-66
2023/01/07 05:05:35;;;;;;;2.25;1.05;;;;;;;9.45;100.00;100394.75;5046850;28;20398;-65
2023/01/07 05:08:01;;;;;;;1.77;1.05;;;;;;;9.56;100.00;100407.38;5049651;28;20033;-66
2023/01/07 05:10:26;;;;;;;1.83;0.95;;;;;;;9.50;100.00;100402.38;5050349;28;20025;-66
2023/01/07 05:12:51;;;;;;;3.83;1.15;;;;;;;9.37;100.00;100381.13;5051165;28;20381;-65
2023/01/07 05:15:17;;;;;;;2.10;0.75;;;;;;;9.48;100.00;100393.75;5065005;28;20403;-66
2023/01/07 05:17:42;;;;;;;3.20;1.25;;;;;;;9.42;100.00;100387.03;5050674;28;20036;-65
2023/01/07 05:20:08;;;;;;;2.20;1.30;;;;;;;9.46;100.00;100395.59;5049187;28;20475;-66
2023/01/07 05:22:34;;;;;;;2.60;0.90;;;;;;;9.44;100.00;100390.41;5049273;28;20032;-65
2023/01/07 05:24:59;;;;;;;2.50;0.80;;;;;;;9.45;100.00;100379.00;5049313;28;20033;-65
2023/01/07 05:27:24;;;;;;;1.77;0.70;;;;;;;9.43;100.00;100372.97;5050198;28;20033;-65
2023/01/07 05:29:50;;;;;;;3.15;1.20;;;;;;;9.46;100.00;100385.09;5049789;28;20028;-64
2023/01/07 05:32:15;;;;;;;1.95;1.08;;;;;;;9.40;100.00;100380.97;5049625;28;20036;-65
2023/01/07 05:34:41;;;;;;;1.42;0.60;;;;;;;9.29;100.00;100371.91;5048705;28;20033;-64
2023/01/07 05:37:06;;;;;;;1.67;0.80;;;;;;;9.36;100.00;100383.81;5047829;28;20029;-66
2023/01/07 05:39:32;;;;;;;2.65;1.00;;;;;;;9.39;100.00;100399.41;5032016;28;20076;-65
2023/01/07 05:41:58;;;;;;;4.25;0.90;;;;;;;9.35;100.00;100392.59;5027296;28;20025;-66
2023/01/07 05:44:23;;;;;;;3.90;1.08;;;;;;;9.34;100.00;100385.66;5048058;28;20115;-65
2023/01/07 05:46:48;;;;;;;2.38;0.98;;;;;;;9.21;100.00;100362.63;5049758;28;20693;-66
2023/01/07 05:49:14;;;;;;;3.78;1.35;;;;;;;9.35;100.00;100382.13;5048488;28;20029;-65
2023/01/07 05:51:39;;;;;;;3.28;0.95;;;;;;;9.33;100.00;100381.34;5047977;28;20048;-65
2023/01/07 05:54:06;;;;;;;5.10;1.48;;;;;;;9.26;100.00;100366.81;5047286;28;20032;-65
2023/01/07 05:56:31;;;;;;;2.75;1.05;;;;;;;9.22;100.00;100360.84;5047744;28;20024;-65
2023/01/07 05:58:56;;;;;;;3.60;1.23;;;;;;;9.20;100.00;100363.53;5049746;28;20501;-65
2023/01/07 06:01:22;;;;;;;8.18;1.42;;;;;;;9.19;100.00;100368.88;5049851;28;20050;-65
2023/01/07 06:03:47;;;;;;;2.85;1.25;;;;;;;9.13;100.00;100366.50;5048796;28;20112;-66
2023/01/07 06:06:13;;;;;;;2.38;0.90;;;;;;;9.16;100.00;100363.72;5049176;28;20463;-65
2023/01/07 06:08:38;;;;;;;4.85;1.50;;;;;;;9.17;100.00;100363.66;5049771;28;20764;-65
2023/01/07 06:11:05;;;;;;;5.03;1.02;;;;;;;9.09;100.00;100343.97;5049873;28;20029;-65
2023/01/07 06:13:31;;;;;;;2.53;1.30;;;;;;;9.11;100.00;100348.22;5031935;28;20025;-65
2023/01/07 06:16:04;;;;;;;2.75;1.13;;;;;;;9.18;100.00;100352.28;5049096;28;20021;-65
2023/01/07 06:18:29;;;;;;;2.47;0.98;;;;;;;9.26;100.00;100351.91;5032716;28;20041;-65
2023/01/07 06:20:55;;;;;;;2.38;1.00;;;;;;;9.30;100.00;100347.38;5048270;28;20102;-65
2023/01/07 06:23:20;;;;;;;2.45;0.85;;;;;;;9.00;100.00;100298.06;5049589;28;20029;-65
2023/01/07 06:25:45;;;;;;;2.15;1.02;;;;;;;9.33;100.00;100347.25;5050449;28;20483;-65
2023/01/07 06:28:11;;;;;;;3.63;1.25;;;;;;;9.35;100.00;100355.91;5051454;28;20029;-65
2023/01/07 06:30:36;;;;;;;5.78;1.08;;;;;;;9.22;100.00;100322.38;5051576;28;20025;-64
2023/01/07 06:33:04;;;;;;;2.83;1.20;;;;;;;9.28;100.00;100330.88;5050894;28;20107;-65
2023/01/07 06:35:29;;;;;;;4.40;1.17;;;;;;;9.24;100.00;100322.28;5032588;28;20040;-66
2023/01/07 06:37:55;;;;;;;1.92;0.73;;;;;;;9.32;100.00;100335.91;5049203;28;20028;-65
2023/01/07 06:40:20;;;;;;;2.08;0.80;;;;;;;9.33;100.00;100328.91;5048423;28;20028;-65
2023/01/07 06:42:46;;;;;;;2.55;1.10;;;;;;;9.36;100.00;100332.22;5035029;28;20033;-65
2023/01/07 06:45:11;;;;;;;2.03;0.93;;;;;;;9.35;100.00;100330.53;5048353;28;20043;-65
2023/01/07 06:47:37;;;;;;;2.17;1.00;;;;;;;9.30;100.00;100315.91;5047078;28;20037;-65
2023/01/07 06:50:02;;;;;;;4.03;1.23;;;;;;;9.32;100.00;100303.59;5049424;28;20498;-65
2023/01/07 06:52:27;;;;;;;1.80;0.80;;;;;;;9.41;100.00;100318.91;5048742;28;20025;-65
2023/01/07 06:54:53;;;;;;;2.30;0.93;;;;;;;9.37;100.00;100306.84;5050308;28;20059;-65
2023/01/07 06:57:18;;;;;;;2.50;0.90;;;;;;;9.44;100.00;100314.34;5050067;28;20406;-64
2023/01/07 06:59:44;;;;;;;2.13;0.77;;;;;;;9.44;100.00;100305.63;5050694;28;20571;-65
2023/01/07 07:02:17;;;;;;;8.80;0.93;;;;;;;9.43;100.00;100311.81;5049823;28;20021;-65
2023/01/07 07:04:42;;;;;;;2.97;1.00;;;;;;;9.39;100.00;100298.00;5047829;28;20033;-65
2023/01/07 07:07:09;;;;;;;2.35;1.00;;;;;;;9.44;100.00;100297.78;5048981;28;20666;-65
2023/01/07 07:09:34;;;;;;;3.08;1.08;;;;;;;9.41;100.00;100287.44;5047088;28;20063;-65
2023/01/07 07:11:59;;;;;;;2.33;1.20;;;;;;;9.35;100.00;100288.56;5026935;28;20136;-65
2023/01/07 07:14:25;;;;;;;2.10;0.90;;;;;;;9.32;100.00;100277.38;5047434;28;20095;-65
2023/01/07 07:16:50;;;;;;;2.42;1.05;;;;;;;9.38;100.00;100292.81;5047442;28;20115;-65
2023/01/07 07:19:16;;;;;;;6.07;1.05;;;;;;;9.34;100.00;100286.00;5028768;28;20479;-65
2023/01/07 07:21:41;;;;;;;2.17;0.80;;;;;;;9.35;100.00;100283.34;5049320;28;20025;-65
2023/01/07 07:24:06;;;;;;;1.58;0.70;;;;;;;9.31;100.00;100281.78;5048017;28;20082;-65
2023/01/07 07:26:32;;;;;;;2.08;0.80;;;;;;;9.27;100.00;100279.34;5033149;28;20463;-65
2023/01/07 07:28:57;;;;;;;2.50;0.73;;;;;;;9.30;100.00;100280.06;5037669;28;20406;-65
2023/01/07 07:31:23;;;;;;;2.78;1.00;;;;;;;9.34;100.00;100292.09;5049040;28;20017;-66
2023/01/07 07:33:48;;;;;;;3.30;1.20;;;;;;;9.31;100.00;100278.28;5052083;28;20029;-65
2023/01/07 07:36:13;;;;;;;1.80;0.70;;;;;;;9.30;100.00;100287.94;5051794;28;20021;-65
2023/01/07 07:38:39;;;;;;;2.30;1.05;;;;;;;9.13;100.00;100256.41;5052526;28;20115;-65
2023/01/07 07:41:04;;;;;;;1.80;0.73;;;;;;;9.38;100.00;100282.31;5051632;28;20530;-65
2023/01/07 07:43:29;;;;;;;1.83;0.70;;;;;;;9.39;100.00;100278.78;5051809;28;20045;-65
2023/01/07 07:45:56;;;;;;;2.25;0.80;;;;;;;9.36;100.00;100257.97;5051671;28;20471;-65
2023/01/07 07:48:22;;;;;;;1.52;0.60;;;;;;;9.43;100.00;100265.44;5034191;28;20104;-65
2023/01/07 07:50:50;;;;;;;2.75;1.10;;;;;;;9.41;100.00;100258.56;5033772;28;20108;-65
2023/01/07 07:53:15;;;;;;;2.17;0.90;;;;;;;9.34;100.00;100241.44;5051941;28;20078;-65
2023/01/07 07:55:41;;;;;;;1.73;0.88;;;;;;;9.37;100.00;100254.41;5051589;28;20104;-65
2023/01/07 07:58:06;;;;;;;1.55;0.63;;;;;;;9.39;100.00;100253.44;5047840;28;20041;-65
2023/01/07 08:00:32;;;;;;;1.80;0.90;;;;;;;9.42;100.00;100262.91;5004617;28;20048;-65
2023/01/07 08:02:58;;;;;;;1.65;0.60;;;;;;;9.42;100.00;100253.28;5034801;28;20021;-66
2023/01/07 08:05:24;;;;;;;1.50;0.70;;;;;;;9.40;100.00;100254.25;5023829;28;20112;-65
2023/01/07 08:07:49;;;;;;;6.43;0.90;;;;;;;9.39;100.00;100245.56;5039979;28;20045;-65
2023/01/07 08:10:15;;;;;;;1.63;0.70;;;;;;;9.48;100.00;100257.38;5043704;28;20036;-65
2023/01/07 08:12:40;;;;;;;2.15;0.85;;;;;;;9.50;100.00;100255.50;5020900;28;20029;-65
2023/01/07 08:15:06;;;;;;;1.88;0.73;;;;;;;9.52;100.00;100257.16;5032411;28;20036;-66
2023/01/07 08:17:32;;;;;;;1.40;0.50;;;;;;;9.56;100.00;100255.25;5028297;28;20033;-65
2023/01/07 08:19:57;;;;;;;1.33;0.55;;;;;;;9.58;100.00;100248.13;5004429;28;20144;-65
2023/01/07 08:22:23;;;;;;;1.45;0.65;;;;;;;9.60;100.00;100241.03;5023742;28;20044;-65
2023/01/07 08:24:48;;;;;;;1.30;0.50;;;;;;;9.50;100.00;100227.50;5029522;28;20036;-65
2023/01/07 08:27:14;;;;;;;2.20;0.88;;;;;;;9.57;100.00;100230.69;5036668;28;20029;-66
2023/01/07 08:29:39;;;;;;;1.63;0.63;;;;;;;9.57;100.00;100228.06;5029585;28;20029;-65
2023/01/07 08:32:05;;;;;;;1.83;0.70;;;;;;;9.62;100.00;100231.31;5027041;28;20839;-66
2023/01/07 08:34:30;;;;;;;1.98;0.60;;;;;;;9.62;100.00;100233.94;5023139;28;20131;-65
2023/01/07 08:36:55;;;;;;;1.48;0.60;;;;;;;9.62;100.00;100224.31;5000346;28;20058;-66
2023/01/07 08:39:21;;;;;;;1.40;0.70;;;;;;;9.65;100.00;100234.66;5019913;28;20140;-65
2023/01/07 08:41:46;;;;;;;1.98;0.75;;;;;;;9.68;100.00;100231.03;5018717;28;20025;-65
2023/01/07 08:44:12;;;;;;;1.42;0.68;;;;;;;9.48;100.00;100189.19;5003425;28;20033;-65
2023/01/07 08:46:37;;;;;;;1.42;0.47;;;;;;;9.68;100.00;100215.28;5024562;28;20032;-65
2023/01/07 08:49:02;;;;;;;1.30;0.68;;;;;;;9.70;100.00;100214.28;5017979;28;20990;-65
2023/01/07 08:51:28;;;;;;;1.02;0.40;;;;;;;9.77;100.00;100212.19;5012168;28;20049;-65
2023/01/07 08:53:54;;;;;;;1.20;0.45;;;;;;;9.67;100.00;100184.72;5029002;28;20068;-65
2023/01/07 08:56:20;;;;;;;0.85;0.45;;;;;;;9.75;100.00;100185.19;5035112;28;20852;-65
2023/01/07 08:58:46;;;;;;;2.63;0.80;;;;;;;9.90;100.00;100210.66;5051495;28;20036;-65
2023/01/07 09:01:11;;;;;;;2.95;0.55;;;;;;;9.82;100.00;100186.59;5033261;28;20020;-66
2023/01/07 09:03:37;;;;;;;2.30;0.70;;;;;;;9.92;100.00;100200.94;5032764;28;20060;-65
2023/01/07 09:06:02;;;;;;;1.92;0.75;;;;;;;9.94;100.00;100191.19;5034266;28;20055;-65
2023/01/07 09:08:28;;;;;;;10.68;0.80;;;;;;;10.01;100.00;100194.34;5032988;28;20094;-65
2023/01/07 09:10:53;;;;;;;1.40;0.60;;;;;;;10.07;100.00;100197.50;5027018;28;20025;-66
2023/01/07 09:13:19;;;;;;;5.20;0.85;;;;;;;10.05;100.00;100194.13;5033947;28;20029;-65
2023/01/07 09:15:44;;;;;;;1.42;0.63;;;;;;;10.10;100.00;100199.16;5005815;28;20365;-66
2023/01/07 09:18:09;;;;;;;1.05;0.40;;;;;;;10.08;100.00;100186.09;5011594;28;20025;-66
2023/01/07 09:20:35;;;;;;;1.77;0.73;;;;;;;10.03;100.00;100177.63;5034117;28;20028;-66
2023/01/07 09:23:00;;;;;;;1.17;0.50;;;;;;;10.01;100.00;100173.34;5032637;28;20032;-65
2023/01/07 09:25:26;;;;;;;1.45;0.75;;;;;;;9.97;100.00;100167.41;5031304;28;20036;-66
2023/01/07 09:27:51;;;;;;;1.10;0.43;;;;;;;10.04;100.00;100178.44;5041546;28;20057;-65
2023/01/07 09:30:17;;;;;;;1.52;0.55;;;;;;;10.03;100.00;100172.38;5039394;28;20028;-65
2023/01/07 09:32:43;;;;;;;1.80;0.70;;;;;;;10.05;100.00;100181.00;5035160;28;20037;-65
2023/01/07 09:35:09;;;;;;;1.70;0.70;;;;;;;9.62;100.00;100105.41;5021293;28;21491;-66
2023/01/07 09:37:34;;;;;;;1.55;0.60;;;;;;;10.01;100.00;100163.72;5041560;28;20136;-65
2023/01/07 09:40:00;;;;;;;1.70;0.60;;;;;;;10.01;100.00;100165.50;5041004;28;20388;-65
2023/01/07 09:42:52;;;;;;;1.90;0.65;;;;;;;10.07;100.00;100168.63;5042609;28;20041;-64
2023/01/07 09:45:27;;;;;;;2.17;0.80;;;;;;;10.06;100.00;100161.72;5046277;28;20793;-65
2023/01/07 09:47:57;;;;;;;3.47;0.88;;;;;;;10.06;100.00;100155.63;5048547;28;20116;-64
2023/01/07 09:50:37;;;;;;;1.52;0.65;;;;;;;10.07;100.00;100155.50;5032257;28;20039;-64
2023/01/07 09:53:07;;;;;;;1.55;0.60;;;;;;;10.00;100.00;100140.19;5063901;28;20063;-65
2023/01/07 09:55:37;;;;;;;1.20;0.45;;;;;;;9.97;100.00;100137.72;5045155;28;20053;-65
2023/01/07 09:58:02;;;;;;;1.88;0.80;;;;;;;10.10;100.00;100146.66;5030712;28;20167;-66
2023/01/07 10:00:29;;;;;;;0.95;0.47;;;;;;;10.08;100.00;100143.25;5032144;28;20167;-65
2023/01/07 10:03:08;;;;;;;5.40;0.68;;;;;;;10.14;100.00;100148.19;5032034;28;20029;-65
2023/01/07 10:05:33;;;;;;;1.63;0.65;;;;;;;10.22;100.00;100148.66;5031862;28;20032;-65
2023/01/07 10:08:22;;;;;;;1.85;0.73;;;;;;;10.31;100.00;100140.28;5050893;28;20036;-65
2023/01/07 10:11:43;;;;;;;1.73;0.70;;;;;;;10.33;100.00;100143.69;5040812;28;20123;-65
2023/01/07 10:14:17;;;;;;;2.38;0.63;;;;;;;10.34;100.00;100139.28;5018303;28;20040;-65
2023/01/07 10:16:59;;;;;;;1.67;0.70;;;;;;;10.36;100.00;100121.66;5049575;28;20475;-65
2023/01/07 10:19:49;;;;;;;3.75;0.60;;;;;;;10.39;100.00;100121.50;5050541;28;20047;-65
2023/01/07 10:22:31;;;;;;;2.22;0.47;;;;;;;10.47;100.00;100108.81;5049167;28;20032;-65
2023/01/07 10:25:00;;;;;;;2.10;0.50;;;;;;;10.40;100.00;100086.44;5050748;28;20040;-64
2023/01/07 10:27:31;;;;;;;1.52;0.50;;;;;;;10.49;100.00;100097.28;5033077;28;20095;-64
2023/01/07 10:30:01;;;;;;;1.45;0.43;;;;;;;10.55;100.00;100094.31;5032532;28;20049;-64
2023/01/07 10:32:31;;;;;;;2.35;0.70;;;;;;;10.54;100.00;100081.28;5049821;28;20028;-64
2023/01/07 10:34:58;;;;;;;1.73;0.63;;;;;;;10.60;100.00;100080.94;5028487;28;20447;-64
2023/01/07 10:37:39;;;;;;;1.30;0.52;;;;;;;10.68;100.00;100076.06;5048781;28;20454;-65
2023/01/07 10:40:10;;;;;;;1.75;0.60;;;;;;;10.80;100.00;100064.03;5032216;28;20033;-65
2023/01/07 10:42:55;;;;;;;1.35;0.57;;;;;;;10.92;100.00;100055.44;5049173;28;20032;-64
2023/01/07 10:45:23;;;;;;;1.35;0.57;;;;;;;11.00;100.00;100038.31;5049180;28;20033;-65
2023/01/07 10:48:41;;;;;;;2.25;0.60;;;;;;;11.12;100.00;100028.88;5032355;28;20029;-64
2023/01/07 10:51:41;;;;;;;2.08;0.50;;;;;;;11.14;100.00;100019.13;5011198;28;20106;-65
2023/01/07 10:54:30;;;;;;;1.02;0.45;;;;;;;11.23;100.00;100027.31;5048950;28;20036;-64
2023/01/07 10:57:00;;;;;;;2.38;0.63;;;;;;;11.15;100.00;100011.13;5047445;28;20041;-65
2023/01/07 10:59:25;;;;;;;2.92;0.95;;;;;;;11.29;100.00;99995.38;5049645;28;20086;-64
2023/01/07 11:01:53;;;;;;;2.00;0.80;;;;;;;11.36;100.00;100008.16;5047622;28;20502;-64
2023/01/07 11:04:19;;;;;;;1.60;0.68;;;;;;;11.37;100.00;99988.81;5026627;28;20029;-64
2023/01/07 11:07:03;;;;;;;2.33;0.98;;;;;;;11.42;100.00;100005.19;5030289;28;20094;-66
2023/01/07 11:09:31;;;;;;;2.00;0.80;;;;;;;11.38;100.00;100003.69;5061638;28;20064;-64
2023/01/07 11:12:01;;;;;;;2.35;1.23;;;;;;;11.36;100.00;99995.00;5029168;28;20021;-65
2023/01/07 11:14:32;;;;;;;1.60;0.80;;;;;;;11.37;100.00;99991.44;5030274;28;20107;-64
2023/01/07 11:17:21;;;;;;;2.53;1.33;;;;;;;11.36;100.00;99984.47;5049607;28;20027;-65
2023/01/07 11:19:50;;;;;;;3.63;1.05;;;;;;;11.35;100.00;99982.81;5029121;28;20502;-65
2023/01/07 11:22:24;;;;;;;2.67;1.15;;;;;;;11.33;100.00;99979.41;5023577;28;20036;-65
2023/01/07 11:24:50;;;;;;;1.88;0.93;;;;;;;11.29;100.00;99969.09;5044174;28;20040;-64
2023/01/07 11:27:16;;;;;;;3.10;1.25;;;;;;;11.27;100.00;99960.44;5049262;28;20635;-64
2023/01/07 11:30:04;;;;;;;2.47;1.00;;;;;;;11.22;100.00;99962.50;5033208;28;20021;-65
2023/01/07 11:32:34;;;;;;;2.58;1.20;;;;;;;11.26;100.00;99961.38;5050341;28;20041;-64
2023/01/07 11:35:02;;;;;;;4.07;1.27;;;;;;;11.23;100.00;99952.81;5033527;28;20069;-65